Decoded Metar for PFWS ( in ) (IATA:) | Meteo·Mobile Aviation Weather
aviador You're here:

PFWS Decoded Metar

in
Report Time2019-01-19 05:56:00
UTC Time2019-01-19 06:22:35
Flight Rules vfr VFR
Wind010° at 18 Gusting to 27 kt
W.Decomp.*RWY 04: 15.6 kt HW 9 kt LCW
RWY 05: 13.8 kt HW 11.6 kt LCW
RWY 31: 9.0 kt HW 15.6 kt RCW
RWY 30: 6.2 kt HW 16.9 kt RCW
W.Rank010° ranks 1
Current wind is above 010° avg. (9.6)
Visibility9999 m
Phenomena:N/A
Clouds:N/A
Expected CloudBase > 1,200 ft AGL from Temp-Dew spread
CeilingNone
Temp-9°C
Dew Point-12°C (79% RH)
AAT-18.7°C
QNH1007 hPa
Raw Report
PFWS 190556Z AUTO 01018G27KT 10SM CLR M09/M12 A2975 RMK AO2 PK WND
01030/0533 SLP080 T10941122 11061 21094 53002 FZRANO=

Extra information for PFWS:More info

Social comments